This demonstration page uses our WeatherBlox Daily Observations layout. Learn more.

36.17497, -115.13722

Hourly Observations for May 8, 2015

Temp ( °F °C ) Dew Point ( °F °C ) Humidity (%) Winds ( mph kmh ) Pressure ( in mb ) Visibility ( mi km ) Precip ( " mm )
12:53 am 00:53 Clear 58 14.4 27 -2.8 31 31 SSW 12 19 29.7 1006 10 16.0934 0 0
1:53 am 01:53 Cloudy 58 14.4 26 -3.3 29 29 SSW 7 11 29.7 1006 10 16.0934 0 0
2:53 am 02:53 Clear 56 13.3 26 -3.3 32 32 S 15 24 29.7 1006 10 16.0934 0 0
3:53 am 03:53 Clear 53 11.7 27 -2.8 37 37 SSW 12 19 29.73 1007 10 16.0934 0 0
4:53 am 04:53 Clear 52 11.1 28 -2.2 40 40 S 13 20 29.74 1007 10 16.0934 0 0
5:53 am 05:53 Sunny 52 11.1 28 -2.2 40 40 S 15 24 29.76 1008 10 16.0934 0 0
6:53 am 06:53 Sunny 53 11.7 29 -1.7 40 40 S 15 24 29.79 1009 10 16.0934 0 0
7:53 am 07:53 Sunny 55 12.8 28 -2.2 35 35 S 15 24 29.8 1009 10 16.0934 0 0
8:53 am 08:53 Sunny 58 14.4 25 -3.9 28 28 SSW 10 17 29.81 1010 10 16.0934 0 0
9:53 am 09:53 Partly Cloudy 58 14.4 23 -5 26 26 SSW 8 13 29.82 1010 10 16.0934 0 0
10:53 am 10:53 Mostly Cloudy 62 16.7 16 -8.9 17 17 SW 18 30 29.84 1011 10 16.0934 0 0
11:53 am 11:53 Sunny 61 16.1 22 -5.6 22 22 SSW 14 22 29.85 1011 10 16.0934 0 0
12:53 pm 12:53 Sunny 61 16.1 23 -5 23 23 SSW 10 17 29.86 1011 10 16.0934 0 0
1:53 pm 13:53 Mostly Cloudy 62 16.7 24 -4.4 23 23 SSE 22 35 29.85 1011 10 16.0934 0 0
2:53 pm 14:53 Sunny 59 15 29 -1.7 32 32 S 17 28 29.87 1012 10 16.0934 0 0
3:53 pm 15:53 Mostly Sunny 60 15.6 26 -3.3 27 27 S 15 24 29.87 1012 10 16.0934 0 0
4:53 pm 16:53 Sunny 60 15.6 28 -2.2 30 30 SE 9 15 29.87 1012 10 16.0934 0 0
5:53 pm 17:53 Sunny 60 15.6 26 -3.3 27 27 Calm 29.87 1012 10 16.0934 0 0
6:53 pm 18:53 Sunny 61 16.1 27 -2.8 27 27 N 8 13 29.88 1012 10 16.0934 0 0
7:53 pm 19:53 Clear 59 15 27 -2.8 29 29 N 5 7 29.9 1012 10 16.0934 0 0
8:53 pm 20:53 Clear 59 15 27 -2.8 29 29 NW 3 6 29.92 1013 10 16.0934 0 0
9:53 pm 21:53 Clear 58 14.4 27 -2.8 31 31 Calm 29.93 1014 10 16.0934 0 0
10:53 pm 22:53 Clear 55 12.8 28 -2.2 35 35 ESE 3 6 29.93 1014 10 16.0934 0 0
11:53 pm 23:53 Clear 55 12.8 29 -1.7 37 37 NNE 3 6 29.95 1014 10 16.0934 0 0

Powered by AerisWeather